Time;durP1;ratioP1;P1;durP2;ratioP2;P2;SDS_P1;SDS_P2;PMS_P1;PMS_P2;Temp;Humidity;BMP_temperature;BMP_pressure;BME280_temperature;BME280_humidity;BME280_pressure;Samples;Min_cycle;Max_cycle;Signal;HPM_P1;HPM_P2
2023/07/25 00:01:44;;;;;;;2.50;1.30;;;23.80;67.60;;;;;;6110892;29;20223;-78
2023/07/25 00:04:45;;;;;;;2.15;1.15;;;23.80;67.60;;;;;;6109328;29;20055;-77
2023/07/25 00:07:46;;;;;;;8.90;1.40;;;23.80;67.60;;;;;;6093586;29;20035;-76
2023/07/25 00:10:46;;;;;;;2.95;1.02;;;23.80;67.50;;;;;;6109738;29;20036;-76
2023/07/25 00:13:48;;;;;;;3.58;1.40;;;23.80;67.50;;;;;;6109207;29;20040;-76
2023/07/25 00:16:49;;;;;;;2.08;1.20;;;23.80;67.30;;;;;;6109743;29;20459;-77
2023/07/25 00:19:50;;;;;;;4.72;1.40;;;23.80;67.40;;;;;;6124659;29;20028;-76
2023/07/25 00:22:50;;;;;;;3.38;1.33;;;23.80;67.40;;;;;;6109569;29;20038;-77
2023/07/25 00:25:51;;;;;;;3.08;1.25;;;23.80;67.50;;;;;;6128092;29;20051;-77
2023/07/25 00:28:52;;;;;;;1.90;1.20;;;23.90;67.20;;;;;;6126500;29;20047;-77
2023/07/25 00:31:53;;;;;;;1.83;0.98;;;23.90;67.10;;;;;;6094982;29;20043;-79
2023/07/25 00:34:54;;;;;;;1.73;1.20;;;23.90;66.90;;;;;;6108993;29;20036;-76
2023/07/25 00:37:54;;;;;;;7.53;1.45;;;23.90;66.70;;;;;;6108282;29;20130;-80
2023/07/25 00:40:55;;;;;;;1.17;0.60;;;23.90;66.70;;;;;;6108405;29;20038;-77
2023/07/25 00:43:56;;;;;;;2.42;1.27;;;23.90;66.90;;;;;;6108662;29;20032;-77
2023/07/25 00:46:58;;;;;;;3.17;1.40;;;23.90;67.10;;;;;;6106902;29;20031;-78
2023/07/25 00:49:59;;;;;;;10.23;1.77;;;23.90;67.10;;;;;;6108057;29;20036;-76
2023/07/25 00:53:01;;;;;;;2.03;1.40;;;23.90;67.10;;;;;;6108846;29;20111;-78
2023/07/25 00:56:02;;;;;;;4.40;1.13;;;23.80;67.10;;;;;;6124661;29;20066;-78
2023/07/25 00:59:03;;;;;;;3.38;1.42;;;23.80;67.30;;;;;;6093056;29;20063;-77
2023/07/25 01:02:04;;;;;;;4.22;1.15;;;23.70;67.50;;;;;;6125645;29;20121;-77
2023/07/25 01:05:05;;;;;;;2.63;1.00;;;23.70;67.60;;;;;;6107568;29;20039;-76
2023/07/25 01:08:06;;;;;;;4.97;0.75;;;23.70;67.50;;;;;;6092256;29;20055;-78
2023/07/25 01:11:06;;;;;;;7.00;1.10;;;23.70;67.40;;;;;;6109305;29;20035;-77
2023/07/25 01:14:07;;;;;;;7.00;1.38;;;23.70;67.20;;;;;;6108844;29;20447;-77
2023/07/25 01:17:14;;;;;;;3.15;1.02;;;23.70;67.10;;;;;;6110153;29;20028;-78
2023/07/25 01:20:14;;;;;;;2.47;1.10;;;23.60;67.00;;;;;;6114249;29;20039;-77
2023/07/25 01:23:17;;;;;;;5.60;1.10;;;23.60;67.00;;;;;;6108322;29;20135;-76
2023/07/25 01:26:18;;;;;;;3.45;1.15;;;23.60;67.00;;;;;;6086576;29;20044;-78
2023/07/25 01:29:19;;;;;;;3.33;1.27;;;23.60;67.20;;;;;;6086790;29;20032;-78
2023/07/25 01:32:20;;;;;;;1.05;0.85;;;23.60;67.30;;;;;;6111451;29;20036;-77
2023/07/25 01:35:21;;;;;;;4.07;1.55;;;23.60;67.60;;;;;;6100497;29;20047;-77
2023/07/25 01:38:21;;;;;;;2.88;1.08;;;23.60;67.80;;;;;;6092003;29;20122;-77
2023/07/25 01:41:22;;;;;;;5.57;1.45;;;23.60;68.10;;;;;;6087506;29;20643;-78
2023/07/25 01:44:23;;;;;;;3.25;1.33;;;23.60;68.10;;;;;;6084209;29;20039;-76
2023/07/25 01:47:25;;;;;;;1.67;0.85;;;23.60;68.10;;;;;;6082296;29;20080;-76
2023/07/25 01:50:27;;;;;;;2.35;1.30;;;23.60;68.20;;;;;;6084925;29;20032;-77
2023/07/25 01:53:28;;;;;;;2.85;1.55;;;23.60;68.50;;;;;;6084905;29;20032;-78
2023/07/25 01:56:29;;;;;;;5.63;1.55;;;23.50;68.70;;;;;;6083855;29;20043;-78
2023/07/25 01:59:30;;;;;;;2.13;1.45;;;23.40;68.70;;;;;;6084053;29;20040;-76
2023/07/25 02:02:30;;;;;;;3.28;1.58;;;23.40;68.90;;;;;;6083159;29;20047;-77
2023/07/25 02:05:31;;;;;;;4.13;1.35;;;23.40;68.90;;;;;;6086369;29;20087;-76
2023/07/25 02:08:32;;;;;;;5.82;1.50;;;23.40;69.30;;;;;;6087805;29;20036;-77
2023/07/25 02:11:33;;;;;;;2.38;1.30;;;23.40;69.60;;;;;;6090571;29;20040;-79
2023/07/25 02:14:34;;;;;;;2.33;1.60;;;23.40;69.80;;;;;;6090500;29;20148;-77
2023/07/25 02:17:35;;;;;;;2.75;1.40;;;23.40;69.70;;;;;;6090018;29;20471;-78
2023/07/25 02:20:36;;;;;;;2.63;1.15;;;23.40;69.40;;;;;;6099853;29;20087;-76
2023/07/25 02:23:36;;;;;;;5.05;1.50;;;23.40;69.20;;;;;;6107713;29;20039;-78
2023/07/25 02:26:38;;;;;;;3.03;1.30;;;23.30;69.20;;;;;;6097253;29;20058;-78
2023/07/25 02:29:39;;;;;;;2.22;1.10;;;23.30;69.10;;;;;;6096190;29;20167;-78
2023/07/25 02:32:39;;;;;;;3.45;1.60;;;23.40;69.00;;;;;;6112111;29;20050;-76
2023/07/25 02:35:40;;;;;;;3.72;1.30;;;23.20;68.60;;;;;;6094397;29;20095;-77
2023/07/25 02:38:41;;;;;;;7.50;1.65;;;23.10;68.30;;;;;;6103703;29;20036;-76
2023/07/25 02:41:43;;;;;;;4.22;1.50;;;23.10;68.00;;;;;;6102810;29;20046;-76
2023/07/25 02:44:44;;;;;;;5.28;1.30;;;23.00;67.80;;;;;;6102956;29;20477;-77
2023/07/25 02:47:44;;;;;;;2.70;1.35;;;23.00;68.50;;;;;;6102903;29;20424;-77
2023/07/25 02:50:45;;;;;;;3.78;1.65;;;23.00;67.40;;;;;;6102967;29;20084;-78
2023/07/25 02:53:46;;;;;;;10.77;1.33;;;23.00;67.30;;;;;;6103091;29;20381;-78
2023/07/25 02:56:47;;;;;;;3.30;1.35;;;23.00;67.10;;;;;;6103227;29;20054;-78
2023/07/25 02:59:48;;;;;;;1.48;1.23;;;23.00;67.20;;;;;;6103242;29;20345;-78
2023/07/25 03:02:48;;;;;;;2.80;1.30;;;22.90;67.00;;;;;;6103143;29;20039;-77
2023/07/25 03:05:49;;;;;;;2.22;1.27;;;22.90;66.90;;;;;;6104830;29;20091;-79
2023/07/25 03:08:50;;;;;;;1.90;1.35;;;22.90;66.80;;;;;;6103977;29;20473;-77
2023/07/25 03:11:51;;;;;;;2.20;1.33;;;22.80;66.40;;;;;;6104706;29;20091;-76
2023/07/25 03:14:52;;;;;;;1.83;1.10;;;22.80;66.30;;;;;;6107385;29;20075;-76
2023/07/25 03:17:54;;;;;;;1.83;1.00;;;22.80;66.10;;;;;;6111116;29;20130;-77
2023/07/25 03:20:54;;;;;;;3.55;1.40;;;22.70;66.10;;;;;;6128764;29;20142;-77
2023/07/25 03:23:55;;;;;;;3.47;1.45;;;22.70;66.20;;;;;;6111600;29;20461;-78
2023/07/25 03:26:56;;;;;;;2.92;1.70;;;22.70;66.30;;;;;;6111219;29;20134;-76
2023/07/25 03:29:57;;;;;;;4.32;1.30;;;22.70;66.40;;;;;;6112263;29;20086;-80
2023/07/25 03:32:58;;;;;;;3.85;1.40;;;22.70;66.50;;;;;;6111722;29;20512;-77
2023/07/25 03:35:59;;;;;;;2.28;1.48;;;22.70;66.30;;;;;;6112456;29;20044;-76
2023/07/25 03:39:00;;;;;;;7.70;1.67;;;22.70;66.20;;;;;;6131392;29;20032;-79
2023/07/25 03:42:02;;;;;;;2.53;1.38;;;22.70;66.00;;;;;;6135021;29;20024;-78
2023/07/25 03:45:03;;;;;;;2.10;1.35;;;22.70;65.90;;;;;;6112463;29;20039;-78
2023/07/25 03:48:04;;;;;;;2.42;1.52;;;22.60;66.00;;;;;;6127702;29;20362;-78
2023/07/25 03:51:05;;;;;;;4.35;1.90;;;22.60;66.10;;;;;;6110201;29;20045;-78
2023/07/25 03:54:06;;;;;;;7.25;1.92;;;22.50;66.20;;;;;;6111106;29;20031;-77
2023/07/25 03:57:07;;;;;;;2.67;1.20;;;22.10;66.30;;;;;;6110938;29;20421;-77
2023/07/25 04:00:08;;;;;;;3.42;1.70;;;22.40;66.60;;;;;;6127496;29;20034;-78
2023/07/25 04:03:15;;;;;;;3.80;1.40;;;22.40;66.80;;;;;;6128980;29;20050;-77
2023/07/25 04:06:17;;;;;;;2.30;1.60;;;22.40;66.90;;;;;;6112854;29;20451;-77
2023/07/25 04:09:17;;;;;;;5.55;1.40;;;22.30;66.90;;;;;;6134314;29;20066;-78
2023/07/25 04:12:18;;;;;;;3.20;1.50;;;22.30;66.90;;;;;;6139326;29;20067;-77
2023/07/25 04:15:19;;;;;;;7.00;1.55;;;22.30;66.90;;;;;;6119304;29;20044;-77
2023/07/25 04:18:20;;;;;;;4.53;1.75;;;22.20;66.70;;;;;;6114149;29;20066;-77
2023/07/25 04:21:21;;;;;;;4.35;1.95;;;22.20;66.80;;;;;;6128218;29;20024;-78
2023/07/25 04:24:21;;;;;;;3.85;1.40;;;22.20;67.80;;;;;;6111032;29;20032;-77
2023/07/25 04:27:22;;;;;;;3.90;1.70;;;22.20;66.90;;;;;;6109228;29;20039;-78
2023/07/25 04:30:23;;;;;;;3.60;1.45;;;22.20;66.70;;;;;;6118884;29;20036;-77
2023/07/25 04:33:24;;;;;;;2.42;1.33;;;22.20;66.50;;;;;;6102471;29;20032;-77
2023/07/25 04:36:28;;;;;;;4.05;1.30;;;22.20;66.50;;;;;;6101655;29;20171;-78
2023/07/25 04:39:29;;;;;;;3.05;1.40;;;22.20;66.50;;;;;;6102638;29;20058;-77
2023/07/25 04:42:30;;;;;;;2.85;1.42;;;22.30;66.40;;;;;;6101912;29;20064;-77
2023/07/25 04:45:31;;;;;;;2.90;1.35;;;22.30;66.20;;;;;;6102695;29;20036;-78
2023/07/25 04:48:31;;;;;;;10.15;1.40;;;22.40;65.90;;;;;;6101922;29;20036;-78
2023/07/25 04:51:32;;;;;;;3.05;1.58;;;22.40;65.60;;;;;;6102172;29;20441;-77
2023/07/25 04:54:33;;;;;;;3.08;1.55;;;22.40;65.00;;;;;;6102448;29;20468;-78
2023/07/25 04:57:34;;;;;;;3.70;1.77;;;22.30;65.10;;;;;;6101201;29;20043;-78
2023/07/25 05:00:35;;;;;;;1.80;1.50;;;22.30;64.80;;;;;;6101963;29;20359;-78
2023/07/25 05:03:36;;;;;;;5.57;1.42;;;22.30;65.00;;;;;;6101688;29;20084;-79
2023/07/25 05:06:36;;;;;;;7.93;1.40;;;22.30;65.20;;;;;;6101303;29;20102;-78
2023/07/25 05:09:37;;;;;;;2.20;1.30;;;22.40;65.40;;;;;;6121657;29;20042;-77
2023/07/25 05:12:38;;;;;;;2.58;1.35;;;22.40;65.30;;;;;;6127095;29;20048;-78
2023/07/25 05:15:39;;;;;;;2.25;1.10;;;22.50;65.30;;;;;;6109082;29;20547;-77
2023/07/25 05:18:39;;;;;;;3.40;1.73;;;22.50;65.10;;;;;;6126190;29;20106;-77
2023/07/25 05:21:40;;;;;;;5.43;2.03;;;22.50;65.20;;;;;;6125545;29;20028;-77
2023/07/25 05:24:41;;;;;;;3.58;1.80;;;22.50;65.50;;;;;;6093677;29;20133;-79
2023/07/25 05:27:42;;;;;;;3.38;1.50;;;22.50;65.70;;;;;;6126263;29;20142;-80
2023/07/25 05:30:43;;;;;;;10.00;1.80;;;22.50;65.70;;;;;;6125660;29;20042;-80
2023/07/25 05:33:43;;;;;;;9.73;1.67;;;22.50;65.00;;;;;;6109639;29;20110;-78
2023/07/25 05:36:44;;;;;;;5.57;1.75;;;22.50;65.60;;;;;;6126261;29;20035;-79
2023/07/25 05:39:45;;;;;;;5.00;1.85;;;22.50;65.30;;;;;;6092999;29;20039;-81
2023/07/25 05:42:47;;;;;;;8.88;2.22;;;22.50;65.40;;;;;;6126374;29;20088;-80
2023/07/25 05:45:50;;;;;;;3.33;1.90;;;22.50;65.80;;;;;;6109078;29;20036;-79
2023/07/25 05:48:51;;;;;;;5.95;1.63;;;22.40;67.10;;;;;;6126686;29;20136;-79
2023/07/25 05:51:53;;;;;;;2.63;1.60;;;22.50;66.40;;;;;;6111514;29;20051;-80
2023/07/25 05:54:54;;;;;;;7.85;1.48;;;22.60;66.30;;;;;;6126885;29;20031;-83
2023/07/25 05:57:55;;;;;;;13.85;2.28;;;22.60;65.90;;;;;;6126076;29;20078;-80
2023/07/25 06:00:56;;;;;;;4.60;2.15;;;22.70;65.60;;;;;;6126978;29;20028;-79
2023/07/25 06:03:56;;;;;;;3.10;1.77;;;22.80;65.30;;;;;;6129592;29;20338;-81
2023/07/25 06:06:57;;;;;;;1.50;1.25;;;22.90;64.70;;;;;;6129251;29;20461;-78
2023/07/25 06:09:58;;;;;;;9.43;2.20;;;22.90;64.10;;;;;;6130459;29;20062;-81
2023/07/25 06:12:59;;;;;;;3.53;1.70;;;22.90;63.70;;;;;;6126915;29;20028;-80
2023/07/25 06:16:00;;;;;;;4.55;1.60;;;22.90;63.50;;;;;;6125525;29;20036;-80
2023/07/25 06:19:01;;;;;;;5.35;1.77;;;23.00;63.50;;;;;;6127581;29;20031;-81
2023/07/25 06:22:02;;;;;;;6.30;2.00;;;23.00;63.40;;;;;;6126485;29;20059;-79
2023/07/25 06:25:04;;;;;;;11.13;2.38;;;23.10;63.40;;;;;;6094277;29;20042;-80
2023/07/25 06:28:05;;;;;;;7.25;1.88;;;23.10;63.40;;;;;;6094579;29;20036;-79
2023/07/25 06:31:06;;;;;;;7.25;2.08;;;23.20;63.40;;;;;;6111487;29;20118;-81
2023/07/25 06:34:07;;;;;;;7.07;1.90;;;23.20;63.50;;;;;;6111599;29;20035;-82
2023/07/25 06:37:08;;;;;;;5.30;1.70;;;23.30;63.50;;;;;;6111977;29;20039;-80
2023/07/25 06:40:09;;;;;;;5.03;1.77;;;23.40;63.30;;;;;;6129498;29;20174;-79
2023/07/25 06:43:10;;;;;;;6.53;2.67;;;23.60;63.20;;;;;;6111579;29;20039;-79
2023/07/25 06:46:12;;;;;;;7.45;1.92;;;23.60;62.80;;;;;;6113190;29;20074;-77
2023/07/25 06:49:13;;;;;;;3.72;1.30;;;23.70;62.30;;;;;;6114009;29;20103;-78
2023/07/25 06:52:14;;;;;;;8.15;1.48;;;23.80;62.10;;;;;;6097687;29;20067;-78
2023/07/25 06:55:18;;;;;;;4.65;1.75;;;23.90;61.80;;;;;;6129178;29;20110;-78
2023/07/25 06:58:19;;;;;;;6.15;1.80;;;23.90;61.10;;;;;;6112821;29;20409;-77
2023/07/25 07:01:20;;;;;;;13.13;2.38;;;24.00;60.70;;;;;;6112436;29;20040;-77
2023/07/25 07:04:21;;;;;;;7.10;2.13;;;24.00;60.40;;;;;;6113504;29;20565;-78
2023/07/25 07:07:22;;;;;;;4.57;1.63;;;24.10;60.40;;;;;;6112430;29;20027;-77
2023/07/25 07:10:23;;;;;;;4.32;1.50;;;24.10;60.20;;;;;;6130124;29;20361;-78
2023/07/25 07:13:24;;;;;;;2.88;1.40;;;24.20;59.80;;;;;;6129485;29;20055;-77
2023/07/25 07:16:25;;;;;;;7.13;1.73;;;24.30;59.70;;;;;;6111560;29;20084;-79
2023/07/25 07:19:26;;;;;;;6.18;1.80;;;24.40;59.50;;;;;;6130441;29;20039;-78
2023/07/25 07:22:26;;;;;;;6.97;1.85;;;24.60;59.20;;;;;;6112475;29;20024;-78
2023/07/25 07:25:27;;;;;;;11.50;1.70;;;24.60;58.60;;;;;;6130063;29;20106;-77
2023/07/25 07:28:29;;;;;;;5.32;2.15;;;24.70;58.20;;;;;;6111293;29;20153;-79
2023/07/25 07:31:30;;;;;;;5.85;1.60;;;24.70;57.90;;;;;;6112894;29;20120;-78
2023/07/25 07:34:31;;;;;;;6.07;1.83;;;24.80;57.80;;;;;;6129314;29;20046;-79
2023/07/25 07:37:32;;;;;;;2.08;1.42;;;24.90;57.70;;;;;;6111582;29;20024;-78
2023/07/25 07:40:35;;;;;;;1.63;0.98;;;25.00;56.60;;;;;;6095356;29;20035;-77
2023/07/25 07:43:35;;;;;;;2.45;1.27;;;25.20;55.60;;;;;;6111675;29;20459;-77
2023/07/25 07:46:36;;;;;;;7.28;1.88;;;25.40;54.40;;;;;;6095112;29;20134;-78
2023/07/25 07:49:37;;;;;;;1.30;1.02;;;25.60;53.80;;;;;;6111858;29;20124;-77
2023/07/25 07:52:41;;;;;;;1.55;1.13;;;25.80;52.40;;;;;;6110164;29;20039;-79
2023/07/25 07:55:42;;;;;;;2.85;1.38;;;25.90;50.70;;;;;;6110098;29;20044;-77
2023/07/25 07:58:42;;;;;;;2.70;1.17;;;26.10;50.00;;;;;;6126703;29;20431;-75
2023/07/25 08:01:46;;;;;;;3.45;1.10;;;26.10;49.20;;;;;;6126029;29;20054;-76
2023/07/25 08:04:47;;;;;;;5.13;1.10;;;26.30;48.80;;;;;;6124919;29;20131;-77
2023/07/25 08:07:48;;;;;;;6.10;1.13;;;26.40;48.30;;;;;;6125352;29;20042;-78
2023/07/25 08:10:49;;;;;;;1.30;1.15;;;26.50;46.60;;;;;;6127570;29;20043;-77
2023/07/25 08:13:50;;;;;;;1.55;0.98;;;26.60;46.40;;;;;;6126169;29;20472;-76
2023/07/25 08:16:50;;;;;;;3.97;1.50;;;26.80;45.70;;;;;;6105486;29;20040;-79
2023/07/25 08:19:51;;;;;;;4.68;1.90;;;27.00;45.50;;;;;;6102454;29;20122;-77
2023/07/25 08:22:52;;;;;;;4.00;1.50;;;27.10;44.80;;;;;;6114102;29;20063;-77
2023/07/25 08:25:57;;;;;;;2.60;0.80;;;27.20;43.50;;;;;;6093596;29;20035;-78
2023/07/25 08:28:57;;;;;;;1.17;0.90;;;27.20;42.90;;;;;;6092941;29;20135;-78
2023/07/25 08:31:58;;;;;;;3.70;1.17;;;27.10;42.60;;;;;;6091741;29;20054;-78
2023/07/25 08:34:59;;;;;;;3.63;1.02;;;27.00;42.60;;;;;;6124796;29;20094;-79
2023/07/25 08:38:00;;;;;;;2.38;0.82;;;27.00;42.40;;;;;;6126316;29;20095;-76
2023/07/25 08:41:04;;;;;;;1.30;1.00;;;26.90;41.90;;;;;;6125379;29;20078;-78
2023/07/25 08:44:09;;;;;;;1.60;1.08;;;26.80;42.10;;;;;;6092859;29;20036;-77
2023/07/25 08:47:17;;;;;;;3.33;1.20;;;26.70;42.00;;;;;;6107533;29;20042;-77
2023/07/25 08:50:21;;;;;;;2.08;1.20;;;26.60;41.60;;;;;;6091568;29;20051;-78
2023/07/25 08:53:23;;;;;;;2.17;0.88;;;26.50;41.00;;;;;;6101217;29;20115;-77
2023/07/25 08:56:25;;;;;;;3.00;1.33;;;26.40;41.60;;;;;;6084479;29;20040;-77
2023/07/25 08:59:26;;;;;;;2.38;1.50;;;26.40;42.10;;;;;;6085626;29;20036;-80
2023/07/25 09:02:28;;;;;;;3.10;1.00;;;26.50;42.50;;;;;;6086118;29;20042;-78
2023/07/25 09:05:30;;;;;;;4.15;1.50;;;26.60;42.10;;;;;;6102468;29;20032;-79
2023/07/25 09:08:30;;;;;;;4.07;1.42;;;26.70;41.80;;;;;;6086644;29;20094;-78
2023/07/25 09:11:33;;;;;;;2.75;1.00;;;26.80;41.30;;;;;;6095130;29;20125;-77
2023/07/25 09:14:39;;;;;;;3.17;1.30;;;26.90;40.60;;;;;;6128356;29;20035;-78
2023/07/25 09:17:40;;;;;;;2.63;1.10;;;27.10;39.70;;;;;;6110591;29;20507;-77
2023/07/25 09:20:43;;;;;;;1.92;1.00;;;27.20;39.50;;;;;;6125689;29;20032;-78
2023/07/25 09:23:58;;;;;;;2.83;0.80;;;27.10;39.20;;;;;;6107956;29;20059;-77
2023/07/25 09:26:59;;;;;;;2.85;1.17;;;27.30;39.40;;;;;;6091979;29;20039;-78
2023/07/25 09:30:00;;;;;;;3.63;1.95;;;27.50;39.00;;;;;;6106487;29;20034;-76
2023/07/25 09:33:01;;;;;;;2.60;1.10;;;27.50;38.70;;;;;;6124167;29;20035;-76
2023/07/25 09:36:02;;;;;;;1.67;1.00;;;27.60;38.10;;;;;;6123478;29;20031;-79
2023/07/25 09:39:02;;;;;;;5.40;1.90;;;27.70;38.00;;;;;;6115840;29;20035;-76
2023/07/25 09:42:03;;;;;;;2.90;1.15;;;27.70;38.20;;;;;;6127955;29;20039;-78
2023/07/25 09:45:11;;;;;;;2.13;1.00;;;27.90;37.70;;;;;;6106667;29;20043;-77
2023/07/25 09:48:14;;;;;;;;;;;28.10;37.20;;;;;;6106221;29;20058;-75
2023/07/25 09:51:15;;;;;;;4.15;1.05;;;28.50;36.60;;;;;;6105632;29;19922;-76
2023/07/25 09:54:15;;;;;;;2.85;1.38;;;28.90;36.20;;;;;;6106536;29;20058;-76
2023/07/25 09:57:17;;;;;;;3.10;1.23;;;29.10;35.70;;;;;;6122552;29;20098;-75
2023/07/25 10:00:18;;;;;;;2.28;1.02;;;29.40;35.60;;;;;;6106373;29;20035;-76
2023/07/25 10:03:20;;;;;;;1.75;0.95;;;29.50;34.90;;;;;;6090218;29;20131;-78
2023/07/25 10:06:21;;;;;;;1.73;0.82;;;29.50;34.40;;;;;;6090985;29;20103;-77
2023/07/25 10:09:24;;;;;;;2.08;0.95;;;29.50;33.70;;;;;;6090397;29;20039;-76
2023/07/25 10:12:24;;;;;;;3.92;1.30;;;29.50;33.80;;;;;;6091838;29;20040;-78
2023/07/25 10:15:25;;;;;;;3.22;0.95;;;29.50;33.90;;;;;;6124496;29;20666;-77
2023/07/25 10:18:31;;;;;;;1.55;1.05;;;29.50;33.60;;;;;;6106733;29;20031;-76
2023/07/25 10:21:50;;;;;;;1.98;1.10;;;29.70;34.10;;;;;;6124787;29;20032;-78
2023/07/25 10:24:50;;;;;;;7.78;1.40;;;29.80;33.90;;;;;;6125904;29;20055;-80
2023/07/25 10:27:57;;;;;;;3.22;1.60;;;30.00;33.60;;;;;;6112319;29;20050;-78
2023/07/25 10:30:58;;;;;;;2.10;0.88;;;30.00;32.80;;;;;;6112949;29;20103;-78
2023/07/25 10:34:00;;;;;;;2.05;0.90;;;30.00;32.80;;;;;;6113175;29;20036;-78
2023/07/25 10:37:27;;;;;;;1.27;1.02;;;29.90;32.90;;;;;;6129908;29;19954;-77
2023/07/25 10:40:50;;;;;;;1.17;0.82;;;29.90;33.00;;;;;;6130860;29;20059;-77
2023/07/25 10:43:55;;;;;;;2.00;1.00;;;30.00;33.00;;;;;;6114468;29;20099;-78
2023/07/25 10:46:59;;;;;;;1.92;1.00;;;30.00;33.00;;;;;;6105586;29;20029;-81
2023/07/25 10:50:00;;;;;;;3.08;1.13;;;30.00;33.10;;;;;;6088570;29;20082;-78
2023/07/25 10:53:14;;;;;;;3.20;1.40;;;30.00;33.40;;;;;;6091657;29;20193;-78
2023/07/25 10:56:16;;;;;;;7.95;1.30;;;29.90;33.50;;;;;;6088718;29;20032;-79
2023/07/25 10:59:17;;;;;;;2.33;1.67;;;29.90;34.10;;;;;;6107274;29;20028;-78
2023/07/25 11:02:38;;;;;;;2.78;1.15;;;29.80;34.60;;;;;;6088116;29;20048;-77
2023/07/25 11:05:39;;;;;;;3.40;1.08;;;29.60;35.00;;;;;;6109919;29;20094;-78
2023/07/25 11:08:42;;;;;;;2.38;1.05;;;29.50;35.20;;;;;;6130979;29;20568;-78
2023/07/25 11:11:45;;;;;;;1.10;0.88;;;29.50;35.20;;;;;;6113304;29;20032;-80
2023/07/25 11:14:45;;;;;;;2.65;0.88;;;29.50;35.10;;;;;;6111932;29;20043;-80
2023/07/25 11:17:48;;;;;;;0.95;0.63;;;29.50;34.90;;;;;;6110090;29;20114;-77
2023/07/25 11:21:01;;;;;;;0.68;0.68;;;29.60;35.00;;;;;;6126891;29;20047;-79
2023/07/25 11:24:06;;;;;;;1.05;0.70;;;30.10;34.60;;;;;;6111025;29;20457;-78
2023/07/25 11:27:07;;;;;;;1.15;0.80;;;30.40;33.80;;;;;;6128548;29;20110;-79
2023/07/25 11:30:13;;;;;;;1.63;0.90;;;30.60;33.10;;;;;;6113160;29;20032;-79
2023/07/25 11:33:14;;;;;;;3.90;0.55;;;30.60;33.10;;;;;;6112391;29;20039;-77
2023/07/25 11:36:15;;;;;;;2.17;0.60;;;30.70;33.10;;;;;;6129036;28;20040;-79
2023/07/25 11:39:17;;;;;;;1.90;0.73;;;30.70;32.90;;;;;;6129649;29;20038;-80
2023/07/25 11:42:18;;;;;;;1.08;0.55;;;30.50;33.60;;;;;;6104337;29;20481;-78
2023/07/25 11:45:20;;;;;;;3.00;0.47;;;30.40;33.40;;;;;;6102344;29;20040;-78
2023/07/25 11:48:21;;;;;;;3.10;0.60;;;30.40;33.60;;;;;;6104493;29;20119;-79
2023/07/25 11:51:22;;;;;;;3.58;0.47;;;30.40;33.40;;;;;;6113693;29;20076;-77
2023/07/25 11:54:23;;;;;;;0.47;0.47;;;30.60;33.10;;;;;;6104166;29;20024;-78
2023/07/25 11:57:24;;;;;;;0.73;0.52;;;31.10;32.70;;;;;;6118028;29;20042;-78
2023/07/25 12:00:25;;;;;;;0.40;0.40;;;31.50;32.20;;;;;;6091965;29;20162;-77
2023/07/25 12:03:26;;;;;;;1.95;0.70;;;31.80;31.10;;;;;;6091359;29;20044;-78
2023/07/25 12:06:31;;;;;;;0.63;0.43;;;32.00;31.10;;;;;;6089332;29;20096;-78
2023/07/25 12:09:32;;;;;;;0.70;0.43;;;32.20;30.40;;;;;;6089719;29;20036;-79
2023/07/25 12:12:40;;;;;;;1.75;0.45;;;32.30;30.10;;;;;;6089999;29;20509;-78
2023/07/25 12:15:49;;;;;;;0.98;0.60;;;32.40;30.20;;;;;;6089900;29;20418;-78
2023/07/25 12:18:56;;;;;;;1.83;0.45;;;32.60;30.00;;;;;;6105744;29;20105;-76
2023/07/25 12:22:04;;;;;;;0.57;0.40;;;32.90;29.90;;;;;;6095064;29;20147;-77
2023/07/25 12:25:06;;;;;;;0.40;0.40;;;33.10;29.90;;;;;;6111104;29;20055;-78
2023/07/25 12:28:08;;;;;;;0.60;0.60;;;33.30;29.80;;;;;;6111776;29;20047;-78
2023/07/25 12:31:09;;;;;;;5.65;0.68;;;33.30;29.20;;;;;;6112467;29;20369;-79
2023/07/25 12:34:12;;;;;;;0.88;0.60;;;33.20;29.30;;;;;;6095007;29;20047;-78
2023/07/25 12:37:13;;;;;;;2.83;0.60;;;33.20;29.50;;;;;;6127824;29;20136;-79
2023/07/25 12:40:18;;;;;;;0.63;0.40;;;33.30;29.20;;;;;;6127599;29;20035;-80
2023/07/25 12:43:19;;;;;;;2.15;0.90;;;33.50;29.20;;;;;;6095413;29;20067;-79
2023/07/25 12:46:20;;;;;;;1.98;0.68;;;33.70;28.90;;;;;;6088614;29;20157;-79
2023/07/25 12:49:21;;;;;;;2.53;1.05;;;33.60;28.90;;;;;;6086539;29;20036;-77
2023/07/25 12:52:22;;;;;;;0.93;0.57;;;33.40;29.20;;;;;;6094245;29;20036;-78
2023/07/25 12:55:23;;;;;;;0.77;0.30;;;33.80;28.90;;;;;;6109257;29;20099;-78
2023/07/25 12:58:24;;;;;;;5.07;0.60;;;34.40;28.20;;;;;;6092624;29;20066;-77
2023/07/25 13:01:24;;;;;;;0.57;0.57;;;34.60;27.80;;;;;;6108169;29;20046;-77
2023/07/25 13:04:26;;;;;;;0.98;0.40;;;34.40;28.10;;;;;;6107086;29;20122;-78
2023/07/25 13:07:26;;;;;;;1.00;0.65;;;34.00;29.10;;;;;;6109465;29;20099;-78
2023/07/25 13:10:30;;;;;;;3.92;0.70;;;33.30;29.60;;;;;;6108797;29;20023;-80
2023/07/25 13:13:31;;;;;;;1.23;0.70;;;32.50;30.40;;;;;;6125916;29;20078;-78
2023/07/25 13:16:31;;;;;;;2.45;0.63;;;31.70;31.50;;;;;;6126727;29;20043;-78
2023/07/25 13:19:32;;;;;;;2.22;0.57;;;31.30;32.10;;;;;;6108234;29;20078;-78
2023/07/25 13:22:33;;;;;;;0.95;0.57;;;31.60;31.90;;;;;;6125868;29;20030;-78
2023/07/25 13:25:35;;;;;;;1.35;0.57;;;32.00;31.30;;;;;;6069879;29;20197;-78
2023/07/25 13:28:36;;;;;;;1.55;0.70;;;32.30;30.30;;;;;;6103389;29;20035;-76
2023/07/25 13:31:39;;;;;;;1.40;0.85;;;32.10;30.50;;;;;;6099584;29;20028;-76
2023/07/25 13:34:40;;;;;;;1.38;0.73;;;31.70;31.70;;;;;;6111346;29;20118;-80
2023/07/25 13:37:40;;;;;;;7.03;1.15;;;32.30;30.40;;;;;;6125043;29;20097;-77
2023/07/25 13:40:41;;;;;;;1.67;0.65;;;33.20;29.50;;;;;;6125616;29;20090;-78
2023/07/25 13:43:42;;;;;;;1.25;0.82;;;33.40;29.20;;;;;;6110684;29;20063;-77
2023/07/25 13:46:44;;;;;;;1.67;0.88;;;34.40;28.60;;;;;;6109068;29;20024;-79
2023/07/25 13:49:44;;;;;;;2.53;0.80;;;35.30;27.60;;;;;;6089557;29;20063;-78
2023/07/25 13:52:45;;;;;;;0.63;0.60;;;35.10;27.20;;;;;;6103001;29;20119;-78
2023/07/25 13:55:46;;;;;;;0.88;0.75;;;34.00;27.90;;;;;;6085287;29;20028;-78
2023/07/25 13:58:47;;;;;;;3.13;0.80;;;32.70;28.90;;;;;;6087917;29;20490;-82
2023/07/25 14:01:48;;;;;;;0.75;0.60;;;31.70;29.90;;;;;;6084734;29;20032;-77
2023/07/25 14:04:49;;;;;;;1.42;0.70;;;31.90;30.20;;;;;;6083774;29;20070;-77
2023/07/25 14:07:50;;;;;;;0.45;0.45;;;32.10;29.50;;;;;;6084224;29;20660;-78
2023/07/25 14:10:51;;;;;;;1.52;0.60;;;32.30;29.20;;;;;;6084154;29;20115;-78
2023/07/25 14:13:51;;;;;;;1.13;0.75;;;32.60;28.90;;;;;;6083265;29;20032;-79
2023/07/25 14:16:52;;;;;;;5.05;0.80;;;33.20;28.40;;;;;;6100258;29;20445;-79
2023/07/25 14:19:53;;;;;;;2.75;0.90;;;34.20;27.80;;;;;;6084266;29;20088;-77
2023/07/25 14:22:54;;;;;;;1.95;0.60;;;35.30;26.40;;;;;;6096272;29;20035;-77
2023/07/25 14:25:55;;;;;;;1.23;0.60;;;36.30;25.40;;;;;;6121962;29;20188;-76
2023/07/25 14:28:55;;;;;;;5.25;0.88;;;36.90;24.60;;;;;;6122457;29;20111;-79
2023/07/25 14:31:58;;;;;;;1.42;0.55;;;37.30;24.00;;;;;;6124838;29;20040;-77
2023/07/25 14:34:58;;;;;;;1.27;0.75;;;37.60;23.40;;;;;;6121983;29;20067;-81
2023/07/25 14:37:59;;;;;;;1.73;0.70;;;38.00;23.20;;;;;;6122125;29;20500;-77
2023/07/25 14:41:00;;;;;;;3.03;0.90;;;38.30;22.60;;;;;;6123649;29;20043;-77
2023/07/25 14:44:01;;;;;;;1.30;0.60;;;38.50;22.00;;;;;;6120890;29;20032;-75
2023/07/25 14:47:02;;;;;;;1.38;0.70;;;38.60;22.00;;;;;;6120493;29;20050;-78
2023/07/25 14:50:04;;;;;;;3.55;1.05;;;38.90;21.50;;;;;;6122818;29;20050;-76
2023/07/25 14:53:05;;;;;;;1.75;0.73;;;39.20;21.20;;;;;;6105066;29;20043;-78
2023/07/25 14:56:06;;;;;;;4.38;0.80;;;39.50;20.70;;;;;;6047170;29;1217132;-77
2023/07/25 14:59:10;;;;;;;3.55;0.60;;;39.80;20.20;;;;;;6107330;29;20036;-78
2023/07/25 15:02:11;;;;;;;2.30;0.88;;;39.80;19.70;;;;;;6106119;29;20043;-76
2023/07/25 15:05:11;;;;;;;0.80;0.70;;;39.30;19.80;;;;;;6105102;29;20381;-77
2023/07/25 15:08:12;;;;;;;2.00;0.70;;;38.20;20.40;;;;;;6105740;29;20489;-76
2023/07/25 15:11:14;;;;;;;1.95;0.80;;;37.00;20.90;;;;;;6106926;29;20360;-76
2023/07/25 15:14:15;;;;;;;1.48;0.70;;;35.80;21.60;;;;;;6110350;29;20057;-76
2023/07/25 15:17:23;;;;;;;1.63;1.02;;;34.60;22.50;;;;;;6108754;29;20036;-76
2023/07/25 15:20:24;;;;;;;2.05;0.90;;;33.60;23.40;;;;;;6093307;29;20102;-75
2023/07/25 15:23:25;;;;;;;1.45;0.60;;;33.00;24.10;;;;;;6127112;29;20448;-76
2023/07/25 15:26:26;;;;;;;1.67;0.75;;;32.60;24.30;;;;;;6108845;29;20098;-76
2023/07/25 15:29:27;;;;;;;1.85;0.75;;;32.80;24.40;;;;;;6126474;29;20032;-76
2023/07/25 15:32:27;;;;;;;1.50;0.77;;;34.00;23.80;;;;;;6125010;29;20036;-79
2023/07/25 15:35:28;;;;;;;2.50;1.00;;;35.10;22.80;;;;;;6109440;29;20107;-77
2023/07/25 15:38:30;;;;;;;1.38;0.90;;;36.00;21.90;;;;;;6126705;29;20772;-77
2023/07/25 15:41:31;;;;;;;2.10;0.90;;;37.00;21.60;;;;;;6106718;29;20464;-78
2023/07/25 15:44:32;;;;;;;1.17;0.80;;;38.00;20.90;;;;;;6126085;29;20035;-77
2023/07/25 15:47:33;;;;;;;1.30;0.60;;;38.30;20.20;;;;;;6107958;29;20039;-79